Array
(
    [0] => p
    [1] => TAF-100
)
বাংলা English Search

Light to moderate rain/thunder showers with temporary gusty wind is likely to occur at most places over Rangpur, Mymensingh, Sylhet, Barishal & Chattogram divisions, at many places over Dhaka & Khulna divisions and at a few places over Rajshahi division with moderately heavy to very heavy falls at isolated places over the country during next 24 hours commencing 06 PM of 04 June 2020........

TAF

 

TAF VGHS 041700Z 0418/0524 16008KT 4000 HZ SCT012 BKN100
  TEMPO 0418/0421 18025KT 2000 RA/TSRA BKN008 FEW025CB OVC090
  BECMG 0421/0423 14006KT 3500 HZ SCT012 BKN100
  TEMPO 0423/0512 18025KT 2000 RA/TSRA BKN008 FEW025CB OVC090
  BECMG 0512/0514 18008KT 4000 HZ SCT015 BKN100

TAF VGEG 041700Z 0418/0524 16005KT 5000 SCT018 BKN100
  BECMG 0420/0422 15005KT 5000 FEW018 SCT110
  BECMG 0504/0506 17005KT 5000 SCT015 BKN100
  TEMPO 0511/0514 18015KT 2000 RA/TSRA BKN008 FEW025 CB OVC090
  BECMG 0515/0517 17008KT 5000 SCT018 BKN100
  BECMG 0520/0522 16005KT 5000 FEWQ018 SCT100

 

TAF VGSY 041000Z 0412/0518 21005KT 4000HZ SCT015 BKN100 BECMG 0423/0501 06005KT 3000HZ SCT012 BKN100 BECMG 0503/0505 09005KT 3500HZ SCT015 BKN100 TEMPO 0412/0506 27020KT 2000RA/TSRA BKN007 FEW025CB OVC090=

Download Refresh Full Screen
    http://live3.bmd.gov.bd/p/TAF-100/